Terminal Aerodrome Forecast
Issued by NWS Wilmington, OH

Current Version | Previous Version | Graphics & Text | Print | Product List | Glossary On
Versions: 1 2 3 4 5 6 7 8 9 10 11 12 13 14 15 16 17 18 19
000
FTUS41 KILN 302100 AAA
TAFDAY
TAF AMD
KDAY 302112Z 3021/3118 22011KT P6SM SCT050 BKN200
     FM302300 21010KT P6SM VCSH SCT050 OVC120
     FM310300 22009KT P6SM SCT020 OVC050
     FM310700 21009KT 3SM -SHRA BR OVC012
     FM311200 21008KT 5SM BR VCSH OVC012
     FM311400 21010KT P6SM VCSH BKN018 OVC250
     FM311600 21011KT P6SM -SHRA VCTS BKN035CB=

USA.gov is the U.S. government's official web portal to all federal, state and local government web resources and services.